Latest Weather Observations for Cape Leeuwin

IDW60801

Issued at 3:05 pm WST Saturday 23 August 2014 (issued every 30 minutes, with the page automatically refreshed every 10 minutes)

About weather observations | Map of weather stations | Latest weather observations for WA | Other Formats
Station Details ID: 009518 Name: CAPE LEEUWIN Lat: -34.37 Lon: 115.14 Height: 13.0 m
Data from the previous 72 hours. | See also: Recent months at Cape Leeuwin
Date/Time
WST
Temp
°C
App
Temp
°C
Dew
Point
Rel
Hum
%
Delta-T
°C
Wind Press
QNH
hPa
Press
MSL
hPa
Rain
since 9 am
mm
Dir
 
Spd
km/h
Gust
km/h
Spd
kts
Gust
kts
23/03:00pm 18.7 11.8 8.7 52 5.2 NNW 35 46 19 25 1019.6 1019.6 1.6
23/02:30pm 18.7 10.1 8.2 50 5.4 NNW 43 50 23 27 1019.8 1019.8 1.6
23/02:00pm 18.5 9.6 6.9 46 5.8 NW 43 52 23 28 1020.0 1020.0 1.6
23/01:30pm 18.2 9.6 8.2 52 5.1 NW 43 52 23 28 1020.2 1020.2 1.4
23/01:00pm 18.2 9.6 8.0 51 5.2 NNW 43 50 23 27 1020.4 1020.4 1.4
23/12:30pm 17.4 9.8 8.9 57 4.4 NW 39 48 21 26 1020.9 1020.9 1.4
23/12:00pm 17.1 11.8 11.4 69 3.1 NNW 30 35 16 19 1021.3 1021.3 1.4
23/11:30am 15.7 10.3 12.2 80 1.9 NNW 32 37 17 20 1021.7 1021.7 1.4
23/11:28am 15.7 10.2 12.0 78 2.0 NNW 32 37 17 20 1021.7 1021.7 1.4
23/11:21am 15.9 9.6 12.2 78 2.0 WNW 37 44 20 24 1021.7 1021.7 1.4
23/11:00am 16.8 11.1 11.2 69 3.0 NNW 32 39 17 21 1021.8 1021.8 1.4
23/10:30am 15.8 9.6 11.3 74 2.4 NW 35 46 19 25 1022.0 1022.0 1.4
23/10:24am 15.7 10.3 12.2 80 1.9 NW 32 43 17 23 1022.0 1022.0 1.4
23/10:00am 14.3 11.9 11.5 83 1.5 N 15 19 8 10 1022.3 1022.3 0.6
23/09:30am 14.4 9.8 9.7 73 2.4 NNW 24 32 13 17 1022.4 1022.4 0.0
23/09:00am 14.6 10.2 7.5 62 3.5 N 20 28 11 15 1022.0 1022.0 0.2
23/08:30am 14.5 10.1 7.4 62 3.5 N 20 26 11 14 1022.1 1022.1 0.2
23/08:00am 13.2 8.6 6.7 64 3.1 N 20 28 11 15 1021.9 1021.9 0.2
23/07:30am 12.7 7.4 6.8 67 2.8 NNE 24 35 13 19 1021.8 1021.8 0.2
23/07:00am 12.4 7.4 6.5 67 2.8 NNE 22 33 12 18 1021.4 1021.4 0.2
23/06:30am 12.6 7.3 6.7 67 2.8 NNE 24 33 13 18 1021.4 1021.4 0.2
23/06:00am 12.8 6.9 5.7 62 3.3 NNE 26 37 14 20 1021.4 1021.4 0.2
23/05:30am 12.9 7.0 5.6 61 3.4 N 26 37 14 20 1021.6 1021.6 0.2
23/05:00am 13.0 7.1 5.7 61 3.4 NNE 26 35 14 19 1021.4 1021.4 0.2
23/04:30am 12.8 6.9 5.7 62 3.3 N 26 33 14 18 1021.4 1021.4 0.2
23/04:00am 12.2 7.1 5.8 65 3.0 N 22 30 12 16 1021.1 1021.1 0.2
23/03:30am 12.4 7.3 5.8 64 3.1 NNE 22 32 12 17 1021.1 1021.1 0.2
23/03:00am 12.6 7.7 5.2 60 3.4 NNE 20 26 11 14 1021.3 1021.3 0.2
23/02:30am 13.1 8.1 4.6 56 3.9 NNE 20 24 11 13 1021.4 1021.4 0.2
23/02:00am 13.1 8.7 4.6 56 3.9 NNE 17 20 9 11 1021.8 1021.8 0.2
23/01:30am 13.5 9.8 4.6 55 4.1 N 13 20 7 11 1022.0 1022.0 0.2
23/01:00am 13.8 10.1 4.4 53 4.3 N 13 19 7 10 1022.0 1022.0 0.2
23/12:30am 14.7 10.9 5.9 55 4.2 NNW 15 19 8 10 1022.2 1022.2 0.2
23/12:00am 15.0 10.4 6.3 56 4.2 NNW 20 28 11 15 1022.5 1022.5 0.2
 
Date/Time
WST
Temp
°C
App
Temp
°C
Dew
Point
Rel
Hum
%
Delta-T
°C
Wind Press
QNH
hPa
Press
MSL
hPa
Rain
since 9 am
mm
Dir
 
Spd
km/h
Gust
km/h
Spd
kts
Gust
kts
22/11:30pm 14.6 10.8 5.7 55 4.2 N 15 19 8 10 1022.7 1022.7 0.2
22/11:00pm 14.5 10.2 5.3 54 4.3 N 17 20 9 11 1022.9 1022.9 0.2
22/10:30pm 14.4 9.8 5.7 56 4.1 NNW 19 30 10 16 1023.2 1023.2 0.2
22/10:00pm 15.3 10.2 6.1 54 4.4 NW 22 28 12 15 1023.5 1023.5 0.2
22/09:30pm 15.8 9.3 6.3 53 4.6 WNW 30 35 16 19 1023.8 1023.8 0.2
22/09:00pm 14.6 10.6 6.7 59 3.8 N 17 20 9 11 1023.8 1023.8 0.2
22/08:30pm 15.4 10.1 8.5 63 3.5 NW 26 37 14 20 1023.6 1023.6 0.2
22/08:00pm 15.5 10.8 7.9 60 3.8 NW 22 26 12 14 1023.4 1023.4 0.2
22/07:30pm 14.2 10.6 6.7 60 3.6 NNW 15 19 8 10 1023.2 1023.2 0.2
22/07:00pm 14.1 10.6 7.3 63 3.3 NNW 15 19 8 10 1023.0 1023.0 0.2
22/06:30pm 14.2 10.1 6.0 58 3.9 NNW 17 19 9 10 1022.6 1022.6 0.2
22/06:00pm 14.7 11.6 7.1 60 3.7 NNW 13 17 7 9 1022.3 1022.3 0.2
22/05:30pm 15.7 12.1 6.7 55 4.4 WNW 15 19 8 10 1022.0 1022.0 0.2
22/05:00pm 16.1 13.1 7.7 57 4.2 WNW 13 17 7 9 1021.8 1021.8 0.2
22/04:30pm 16.2 12.4 7.6 56 4.3 W 17 20 9 11 1021.6 1021.6 0.2
22/04:00pm 15.8 10.5 8.5 62 3.7 W 26 32 14 17 1021.5 1021.5 0.2
22/03:30pm 15.8 11.2 8.0 60 3.9 WNW 22 32 12 17 1021.4 1021.4 0.2
22/03:00pm 16.0 11.1 7.1 55 4.4 W 22 28 12 15 1021.4 1021.4 0.2
22/02:30pm 17.2 13.1 6.1 48 5.4 WNW 17 24 9 13 1021.3 1021.3 0.2
22/02:00pm 17.2 13.1 6.4 49 5.3 NW 17 19 9 10 1021.1 1021.1 0.2
22/01:30pm 17.3 13.5 5.7 46 5.6 WNW 15 20 8 11 1021.2 1021.2 0.2
22/01:00pm 17.0 13.5 5.6 47 5.5 WNW 13 17 7 9 1021.0 1021.0 0.2
22/12:30pm 17.3 13.9 5.7 46 5.6 WNW 13 17 7 9 1021.2 1021.2 0.2
22/12:00pm 16.9 13.3 5.2 46 5.6 WSW 13 15 7 8 1021.5 1021.5 0.2
22/11:30am 15.8 11.7 4.1 45 5.4 WSW 15 20 8 11 1021.5 1021.5 0.0
22/11:00am 16.2 11.5 5.3 48 5.2 WSW 19 24 10 13 1021.6 1021.6 0.0
22/10:30am 16.1 10.9 5.7 50 5.0 SW 22 32 12 17 1021.5 1021.5 0.0
22/10:00am 15.4 8.7 3.8 46 5.3 WSW 28 35 15 19 1021.3 1021.3 0.0
22/09:30am 15.1 7.5 3.7 46 5.2 WSW 33 41 18 22 1021.0 1021.0 0.0
22/09:00am 15.0 7.1 4.4 49 4.9 WSW 35 43 19 23 1020.7 1020.7 6.4
22/08:30am 14.7 6.8 4.5 50 4.7 WSW 35 43 19 23 1020.3 1020.3 6.4
22/08:00am 14.8 7.3 6.5 57 4.0 WSW 35 44 19 24 1019.7 1019.7 6.4
22/07:30am 14.5 6.6 6.4 58 3.9 WSW 37 43 20 23 1019.0 1019.0 6.4
22/07:00am 14.4 6.7 7.0 61 3.6 WSW 37 46 20 25 1018.5 1018.5 6.4
22/06:30am 14.2 5.6 6.3 59 3.8 WSW 41 48 22 26 1018.1 1018.1 6.4
22/06:00am 13.8 5.3 6.8 62 3.4 WSW 41 48 22 26 1017.6 1017.6 6.4
22/05:30am 13.8 5.2 8.8 72 2.5 WSW 44 52 24 28 1017.1 1017.1 6.4
22/05:00am 15.2 4.7 5.8 53 4.5 W 50 59 27 32 1016.3 1016.3 6.2
22/04:30am 14.8 5.5 6.0 55 4.2 WSW 44 54 24 29 1015.8 1015.8 6.2
22/04:00am 14.9 4.0 5.7 54 4.4 W 52 61 28 33 1015.5 1015.5 6.2
22/03:30am 14.7 2.8 5.4 53 4.4 W 57 70 31 38 1015.1 1015.1 6.2
22/03:00am 13.9 2.6 8.1 68 2.9 W 57 72 31 39 1014.9 1014.9 6.2
22/02:30am 15.4 3.0 4.5 48 5.1 W 59 69 32 37 1014.3 1014.3 6.2
22/02:00am 15.7 3.3 6.7 55 4.4 W 61 72 33 39 1014.0 1014.0 6.2
22/01:30am 15.4 4.0 7.6 59 3.9 W 57 69 31 37 1013.4 1013.4 6.2
22/01:00am 14.9 2.5 6.4 57 4.1 W 61 72 33 39 1012.9 1012.9 6.2
22/12:30am 15.4 3.7 9.4 67 3.1 W 61 80 33 43 1012.4 1012.4 6.2
22/12:00am 15.0 5.4 10.9 76 2.2 W 52 61 28 33 1012.5 1012.5 6.2
 
Date/Time
WST
Temp
°C
App
Temp
°C
Dew
Point
Rel
Hum
%
Delta-T
°C
Wind Press
QNH
hPa
Press
MSL
hPa
Rain
since 9 am
mm
Dir
 
Spd
km/h
Gust
km/h
Spd
kts
Gust
kts
21/11:30pm 14.3 1.9 9.6 73 2.4 W 65 76 35 41 1012.3 1012.3 6.2
21/11:00pm 14.6 1.5 9.8 73 2.5 WNW 69 89 37 48 1011.7 1011.7 5.2
21/10:58pm 16.0 3.1 9.0 63 3.6 WNW 67 89 36 48 1011.3 1011.3 5.2
21/10:30pm 16.0 4.3 9.4 65 3.4 WNW 61 72 33 39 1011.3 1011.3 5.2
21/10:00pm 15.1 2.1 10.1 72 2.6 WNW 69 85 37 46 1011.6 1011.6 5.2
21/09:43pm 16.0 4.4 9.7 66 3.3 WNW 61 87 33 47 1011.1 1011.1 4.8
21/09:30pm 16.3 4.8 8.5 60 4.0 WNW 59 70 32 38 1011.3 1011.3 4.8
21/09:00pm 16.0 5.8 9.9 67 3.2 NW 54 65 29 35 1011.2 1011.2 4.8
21/08:30pm 16.0 4.5 10.3 69 3.0 NW 61 78 33 42 1010.9 1010.9 4.8
21/08:28pm 16.1 5.1 10.4 69 3.0 WNW 59 78 32 42 1010.8 1010.8 4.8
21/08:23pm 15.9 4.2 9.3 65 3.4 NW 61 69 33 37 1010.8 1010.8 4.8
21/08:00pm 15.5 7.6 10.8 73 2.5 WNW 43 57 23 31 1010.8 1010.8 4.8
21/07:30pm 15.1 6.2 11.8 81 1.8 WNW 50 59 27 32 1011.0 1011.0 0.8
21/07:29pm 15.2 6.3 11.9 81 1.8 W 50 57 27 31 1010.9 1010.9 0.8
21/07:00pm 16.4 8.2 10.4 67 3.2 NW 44 54 24 29 1010.5 1010.5 0.8
21/06:30pm 16.5 7.6 9.2 62 3.8 WNW 46 54 25 29 1010.1 1010.1 0.8
21/06:00pm 16.3 7.5 8.0 58 4.2 WNW 44 56 24 30 1009.8 1009.8 0.8
21/05:30pm 16.6 7.4 7.9 56 4.4 NW 46 54 25 29 1009.5 1009.5 0.8
21/05:00pm 17.1 8.5 8.8 58 4.3 WNW 44 52 24 28 1009.3 1009.3 0.8
21/04:30pm 16.9 8.3 8.0 55 4.5 WNW 43 50 23 27 1009.1 1009.1 0.8
21/04:00pm 17.4 9.6 8.2 54 4.7 WNW 39 50 21 27 1009.0 1009.0 0.8
21/03:30pm 17.0 7.9 10.0 63 3.7 W 48 63 26 34 1009.0 1009.0 0.8
21/03:00pm 17.5 8.2 7.4 51 5.1 WNW 46 56 25 30 1008.7 1008.7 0.8
21/02:30pm 17.5 7.0 7.4 51 5.1 WNW 52 59 28 32 1008.6 1008.6 0.8
21/02:00pm 16.7 9.9 9.2 61 3.9 WNW 35 54 19 29 1008.3 1008.3 0.8
21/01:58pm 16.3 10.3 10.0 66 3.3 WNW 32 52 17 28 1008.4 1008.4 0.8
21/01:30pm 15.3 7.8 12.2 82 1.7 NW 43 50 23 27 1008.6 1008.6 0.8
21/01:18pm 15.9 7.4 10.8 71 2.7 WNW 46 65 25 35 1008.6 1008.6 0.8
21/01:00pm 15.8 7.7 10.9 72 2.6 W 44 59 24 32 1008.4 1008.4 0.8
21/12:37pm 16.9 8.6 9.4 61 3.9 WNW 43 61 23 33 1007.9 1007.9 0.6
21/12:30pm 16.9 9.8 11.0 68 3.2 W 39 46 21 25 1008.2 1008.2 0.6
21/12:00pm 15.9 8.8 12.1 78 2.1 W 41 54 22 29 1008.3 1008.3 0.6
21/11:30am 15.4 8.4 12.5 83 1.6 W 41 46 22 25 1008.4 1008.4 0.6
21/11:23am 14.9 7.5 12.5 85 1.3 W 43 46 23 25 1008.5 1008.5 0.6
21/11:00am 16.2 10.3 12.4 78 2.1 NW 35 39 19 21 1008.4 1008.4 0.2
21/10:30am 15.0 8.6 12.1 83 1.6 WNW 37 43 20 23 1008.6 1008.6 0.2
21/10:00am 15.6 7.4 11.7 77 2.1 W 46 57 25 31 1008.1 1008.1 0.0
21/09:30am 15.8 8.0 11.7 76 2.2 W 44 52 24 28 1007.7 1007.7 0.0
21/09:00am 15.2 8.1 13.4 89 1.0 W 43 52 23 28 1007.3 1007.3 7.4
21/08:30am 15.8 6.7 13.7 87 1.2 W 54 61 29 33 1006.6 1006.6 7.2
21/08:26am 16.3 7.9 13.6 84 1.5 W 50 57 27 31 1006.5 1006.5 6.8
21/08:24am 17.0 7.3 13.1 78 2.2 WNW 56 78 30 42 1006.1 1006.1 6.8
21/08:00am 17.4 7.1 10.9 65 3.5 WNW 56 67 30 36 1005.7 1005.7 6.8
21/07:30am 17.3 6.5 11.2 67 3.3 WNW 59 69 32 37 1005.4 1005.4 6.8
21/07:00am 17.1 5.9 11.2 68 3.2 WNW 61 72 33 39 1005.0 1005.0 6.8
21/06:30am 17.1 4.4 10.1 63 3.7 WNW 67 76 36 41 1004.3 1004.3 6.8
21/06:00am 17.2 5.0 10.3 64 3.7 WNW 65 76 35 41 1003.7 1003.7 6.8
21/05:30am 17.0 5.2 11.7 71 2.9 WNW 65 82 35 44 1003.4 1003.4 6.8
21/05:00am 16.9 5.6 13.2 79 2.1 WNW 65 82 35 44 1003.4 1003.4 6.8
21/04:39am 16.6 7.4 15.1 91 0.9 WNW 57 76 31 41 1003.4 1003.4 6.8
21/04:30am 16.4 6.8 15.0 91 0.8 WNW 59 76 32 41 1003.6 1003.6 6.8
21/04:24am 17.4 8.5 15.4 88 1.2 WNW 56 76 30 41 1003.4 1003.4 6.8
21/04:00am 17.5 11.3 15.8 90 1.0 NW 43 52 23 28 1003.5 1003.5 6.8
21/03:30am 17.5 10.5 16.3 93 0.7 NW 48 61 26 33 1003.6 1003.6 6.6
21/03:00am 18.0 11.0 16.3 90 1.0 NNW 48 57 26 31 1003.6 1003.6 6.0
21/02:31am 17.1 11.2 15.6 91 0.9 N 41 59 22 32 1004.0 1004.0 6.0
21/02:30am 17.0 10.6 15.5 91 0.9 N 43 59 23 32 1004.0 1004.0 6.0
21/02:00am 16.7 10.6 15.2 91 0.9 N 41 59 22 32 1004.2 1004.2 6.0
21/01:31am 16.6 11.6 15.1 91 0.9 N 35 57 19 31 1004.6 1004.6 6.0
21/01:30am 16.5 11.5 15.1 91 0.8 N 35 52 19 28 1004.6 1004.6 6.0
21/01:08am 16.3 11.8 15.3 94 0.6 N 33 52 18 28 1005.4 1005.4 6.0
21/01:00am 16.2 11.3 15.2 94 0.6 N 35 52 19 28 1005.7 1005.7 4.8
21/12:39am 16.1 11.4 14.9 93 0.7 N 33 52 18 28 1005.8 1005.8 1.8
21/12:30am 16.2 11.0 14.6 90 0.9 N 35 52 19 28 1005.7 1005.7 1.6
21/12:00am 15.9 11.1 14.5 91 0.8 N 33 46 18 25 1006.3 1006.3 1.6
 
Date/Time
WST
Temp
°C
App
Temp
°C
Dew
Point
Rel
Hum
%
Delta-T
°C
Wind Press
QNH
hPa
Press
MSL
hPa
Rain
since 9 am
mm
Dir
 
Spd
km/h
Gust
km/h
Spd
kts
Gust
kts
20/11:30pm 15.7 10.7 13.9 89 1.0 NNE 33 46 18 25 1006.6 1006.6 1.4
20/11:01pm 15.5 10.9 13.4 87 1.2 N 30 48 16 26 1007.2 1007.2 1.4
20/11:00pm 15.5 10.5 13.4 87 1.2 N 32 48 17 26 1007.2 1007.2 1.4
20/10:57pm 15.4 10.8 13.4 88 1.1 N 30 48 16 26 1007.3 1007.3 1.4
20/10:30pm 15.3 11.0 13.3 88 1.1 N 28 39 15 21 1008.1 1008.1 1.4
20/10:00pm 15.8 11.8 13.1 84 1.5 N 26 39 14 21 1008.9 1008.9 1.0
20/09:30pm 15.6 11.1 12.7 83 1.6 N 28 41 15 22 1009.2 1009.2 1.0
20/09:00pm 15.6 11.3 12.1 80 1.9 N 26 37 14 20 1009.5 1009.5 1.0
20/08:30pm 15.4 11.5 12.1 81 1.8 NNE 24 33 13 18 1009.7 1009.7 1.0
20/08:00pm 15.6 11.3 11.9 78 2.0 N 26 37 14 20 1010.2 1010.2 1.0
20/07:30pm 15.9 12.5 11.3 74 2.5 N 20 28 11 15 1010.3 1010.3 1.0
20/07:00pm 15.4 13.3 11.3 76 2.2 NNE 13 19 7 10 1010.3 1010.3 1.0
20/06:30pm 16.1 12.9 11.1 72 2.7 N 19 24 10 13 1010.3 1010.3 1.0
20/06:00pm 16.7 13.3 11.1 69 3.0 N 20 28 11 15 1010.4 1010.4 1.0
20/05:30pm 17.1 12.1 10.8 66 3.4 NNW 28 33 15 18 1010.5 1010.5 1.0
20/05:00pm 18.1 11.8 11.1 63 3.8 NNW 35 43 19 23 1010.5 1010.5 1.0
20/04:30pm 18.5 11.9 11.2 62 4.0 NNW 37 43 20 23 1010.4 1010.4 1.0
20/04:00pm 18.4 11.3 10.8 61 4.1 NW 39 48 21 26 1010.4 1010.4 1.0
20/03:30pm 18.6 11.1 10.8 60 4.2 NW 41 48 22 26 1010.4 1010.4 1.0

Other Formats:

Comma delimited format used in spreadsheet applications
http://www.bom.gov.au/fwo/IDW60801/IDW60801.94601.axf

JavaScript Object Notation format (JSON) in row-major order
http://www.bom.gov.au/fwo/IDW60801/IDW60801.94601.json